North Haledon, New Jersey
Current Conditions -  °F | °C
As of 6:53 PM on Friday 28 Nov 2014 (Local Time) from KCDW Reporting Station
Clear Clear  
Wind Chill: 27°   Ceiling: Unl
Heat Index: 27°   Visibility: 10mi
Dew Point: 12°   Wind: 0mph
Humidity: 53%   Direction: NA
Pressure: 30.25"   Gusts: NA
Location:  40.9358°N, 74.1867°W
Report Text: KCDW 282353Z AUTO 00000KT 10SM CLR M03/M11 A3025 RMK AO2 SLP251 T10281111 10017 21028 51017 TSNO
Loading
Personal Weather Stations






























Interactive Weather Map New forecast layout! Learn more

10-Day Weather Forecast

Advertisements
Track Severe Weather on mobile